To NAV CANADA Home Page Login to a new session Search on AWWS site Disclaimer Vers la page française équivalente Tips FAQ What's new on the site To the Forecasts and Observations / NOTAM section To "File a Flight Plan" website Publications and other links Update of the User's profile FIC Telephone Numbers My Weather Data Folder Route Weather Data Regional Weather Data Local Weather Data To the Forecasts and Observations / NOTAM section
Request Generated 10/19/2018 at 15:34:56 UTC . Weather information available at that time is displayed.

METAR/TAF

SASKATOON/JOHN G. DIEFENBAKER INTL/SK    

METAR CYXE 191500Z 28008KT 15SM SKC 03/M01 A3021 RMK SLP252=
METAR CYXE 191400Z 27008KT 15SM SKC M01/M02 A3020 RMK SLP249=
METAR CYXE 191300Z 28011KT 15SM SKC 00/M02 A3018 RMK SLP242=

TAF CYXE 191138Z 1912/2012 29010KT P6SM SKC
FM191500 30012KT P6SM SCT025
BECMG 1916/1918 30018G28KT
BECMG 2000/2002 02008KT
FM200600 09008KT P6SM FEW240
RMK NXT FCST BY 191800Z=
Your time UTC time
Weather data provided by Environment Canada and NAV CANADA